Time;durP1;ratioP1;P1;durP2;ratioP2;P2;SDS_P1;SDS_P2;PMS_P1;PMS_P2;Temp;Humidity;BMP_temperature;BMP_pressure;BME280_temperature;BME280_humidity;BME280_pressure;Samples;Min_cycle;Max_cycle;Signal;HPM_P1;HPM_P2
2023/10/17 00:32:12;;;;;;;579.80;225.20;;;;;;;27.91;33.46;97787.84;686685;27;20326;-58
2023/10/17 00:32:40;;;;;;;597.08;233.40;;;;;;;27.09;41.61;97789.16;670090;28;12491;-61
2023/10/17 00:36:04;;;;;;;425.40;151.15;;;;;;;26.89;35.25;97778.03;714893;27;20332;-63
2023/10/17 00:36:26;;;;;;;449.40;166.60;;;;;;;25.79;35.18;97784.66;645938;28;13248;-66
2023/10/17 00:36:48;;;;;;;462.03;165.10;;;;;;;24.93;36.03;97765.06;669550;28;12148;-66
2023/10/17 00:39:47;;;;;;;329.75;121.57;;;;;;;23.97;45.53;97731.34;714990;27;20317;-59
2023/10/17 00:40:34;;;;;;;304.98;117.35;;;;;;;23.80;43.31;97708.69;712718;27;880;-58
2023/10/17 00:41:16;;;;;;;368.90;145.73;;;;;;;22.75;40.13;97701.41;701095;28;1586;-58
2023/10/17 00:42:29;;;;;;;316.60;125.18;;;;;;;21.50;41.32;97696.84;648964;27;13051;-53
2023/10/17 00:42:50;;;;;;;308.20;125.93;;;;;;;21.25;41.67;97703.16;704675;28;952;-53
2023/10/17 00:43:13;;;;;;;305.57;124.33;;;;;;;21.21;46.79;97704.69;670033;28;12313;-63
2023/10/17 00:43:35;;;;;;;274.60;111.65;;;;;;;21.11;43.98;97701.59;682245;28;13217;-66
2023/10/17 00:43:55;;;;;;;263.53;99.43;;;;;;;20.65;43.50;97708.25;655206;28;12152;-60
2023/10/17 00:44:24;;;;;;;259.88;94.18;;;;;;;20.32;43.08;97707.66;662451;28;13076;-60
2023/10/17 00:44:46;;;;;;;236.32;86.88;;;;;;;19.89;43.18;97704.78;671968;28;11989;-57
2023/10/17 00:45:08;;;;;;;214.15;77.75;;;;;;;19.31;44.45;97707.47;698578;28;1027;-58
2023/10/17 00:45:29;;;;;;;239.82;95.18;;;;;;;22.61;55.06;97705.34;698429;28;1040;-60
2023/10/17 00:45:50;;;;;;;243.95;103.70;;;;;;;22.89;46.64;97714.75;700368;28;1051;-60
2023/10/17 00:46:10;;;;;;;188.77;77.83;;;;;;;22.33;42.36;97703.28;702719;28;1343;-60
2023/10/17 00:46:31;;;;;;;128.85;55.60;;;;;;;21.72;41.32;97712.44;701667;28;1293;-57
2023/10/17 00:46:52;;;;;;;119.03;50.00;;;;;;;21.14;40.89;97706.56;702288;28;864;-58
2023/10/17 00:47:18;;;;;;;112.55;48.13;;;;;;;20.58;40.93;97702.09;701899;28;1000;-60
2023/10/17 00:47:41;;;;;;;111.85;47.45;;;;;;;19.98;41.28;97706.19;701996;28;1000;-63
2023/10/17 00:48:08;;;;;;;107.40;45.15;;;;;;;19.51;41.87;97713.69;700092;28;1333;-61
2023/10/17 00:48:28;;;;;;;104.60;43.72;;;;;;;19.06;42.24;97709.22;702278;28;1024;-67
2023/10/17 00:48:50;;;;;;;102.93;42.33;;;;;;;18.72;43.26;97711.13;697957;28;1502;-56
2023/10/17 00:49:10;;;;;;;103.50;44.85;;;;;;;18.46;43.76;97705.69;698624;28;931;-61
2023/10/17 00:49:45;;;;;;;102.95;42.80;;;;;;;18.18;44.28;97713.91;695654;28;1534;-65
2023/10/17 00:50:12;;;;;;;92.30;39.78;;;;;;;17.92;44.88;97714.72;696241;28;968;-59
2023/10/17 00:50:33;;;;;;;94.80;39.77;;;;;;;17.71;45.29;97710.28;695972;28;1318;-66
2023/10/17 00:51:28;;;;;;;89.20;39.25;;;;;;;17.59;45.47;97716.44;703251;28;1039;-55
2023/10/17 00:51:42;;;;;;;93.47;39.88;;;;;;;17.30;46.31;97714.81;703083;28;1669;-55
2023/10/17 00:52:03;;;;;;;90.32;38.05;;;;;;;17.22;46.74;97709.59;704735;28;1425;-55
2023/10/17 00:52:26;;;;;;;83.68;35.33;;;;;;;17.13;46.67;97710.81;704176;28;1550;-56
2023/10/17 00:52:49;;;;;;;91.80;36.65;;;;;;;17.04;47.01;97716.31;705665;28;929;-64
2023/10/17 00:53:11;;;;;;;76.53;32.33;;;;;;;16.95;47.47;97711.28;703992;28;1067;-57
2023/10/17 00:53:31;;;;;;;121.00;55.42;;;;;;;17.05;49.13;97712.59;704045;28;1901;-63
2023/10/17 00:53:52;;;;;;;149.73;59.60;;;;;;;17.17;49.87;97720.13;704605;28;1201;-61
2023/10/17 00:54:13;;;;;;;132.02;58.50;;;;;;;17.33;50.30;97712.56;704312;28;1343;-71
2023/10/17 00:54:35;;;;;;;135.82;58.22;;;;;;;17.53;51.35;97720.75;706649;28;1083;-60
2023/10/17 00:54:57;;;;;;;142.80;58.47;;;;;;;17.73;50.91;97710.06;706614;28;992;-63
2023/10/17 00:55:18;;;;;;;139.95;56.40;;;;;;;17.97;50.69;97716.78;698209;28;1318;-62
2023/10/17 00:55:49;;;;;;;140.77;57.83;;;;;;;18.18;49.97;97707.69;698353;28;921;-68
2023/10/17 00:56:10;;;;;;;108.55;36.75;;;;;;;18.36;46.96;97711.47;701277;28;936;-76
2023/10/17 00:56:32;;;;;;;95.25;18.40;;;;;;;18.23;44.84;97714.16;698462;28;1499;-71
2023/10/17 00:56:56;;;;;;;19.52;6.10;;;;;;;17.85;43.65;97718.41;698482;28;1036;-75
2023/10/17 00:57:17;;;;;;;9.70;4.47;;;;;;;17.40;42.96;97705.34;698415;28;1079;-70
2023/10/17 00:57:39;;;;;;;9.43;4.50;;;;;;;17.01;42.93;97716.75;700848;28;1479;-70
2023/10/17 00:58:00;;;;;;;9.10;4.13;;;;;;;16.60;42.84;97713.91;701092;28;1215;-77
2023/10/17 00:58:24;;;;;;;9.55;4.10;;;;;;;16.13;43.12;97717.22;701339;28;1309;-72
2023/10/17 00:58:44;;;;;;;8.65;4.20;;;;;;;15.64;43.47;97722.44;701332;28;984;-72
2023/10/17 00:59:07;;;;;;;7.67;4.20;;;;;;;15.15;43.93;97717.63;702198;28;941;-77
2023/10/17 00:59:29;;;;;;;7.95;3.97;;;;;;;14.65;44.28;97729.09;702223;28;1039;-72
2023/10/17 00:59:53;;;;;;;8.55;4.30;;;;;;;14.21;45.31;97720.03;700203;28;1430;-76
2023/10/17 01:00:23;;;;;;;8.50;4.88;;;;;;;13.73;46.06;97727.38;701472;28;1318;-75
2023/10/17 01:00:53;;;;;;;10.45;4.65;;;;;;;13.14;46.86;97724.31;701469;28;1073;-73
2023/10/17 01:01:19;;;;;;;9.55;4.82;;;;;;;12.65;48.20;97723.53;704743;28;1020;-78
2023/10/17 01:01:40;;;;;;;11.75;5.10;;;;;;;12.23;49.05;97734.44;698954;28;1961;-76
2023/10/17 01:02:06;;;;;;;11.85;4.65;;;;;;;11.91;49.38;97727.22;700390;28;957;-77
2023/10/17 01:02:29;;;;;;;9.43;4.70;;;;;;;11.55;50.24;97727.44;696718;28;989;-79
2023/10/17 01:02:51;;;;;;;9.35;4.30;;;;;;;11.28;51.37;97738.38;696757;28;945;-76
2023/10/17 01:03:13;;;;;;;8.85;4.32;;;;;;;11.01;51.50;97734.06;699130;28;1048;-76
2023/10/17 01:03:41;;;;;;;7.57;4.28;;;;;;;10.74;52.27;97739.56;702061;28;1453;-78
2023/10/17 01:04:03;;;;;;;10.80;4.95;;;;;;;10.43;52.92;97734.69;704471;28;1451;-76
2023/10/17 01:04:24;;;;;;;12.00;4.82;;;;;;;10.19;53.59;97735.34;706828;28;993;-76
2023/10/17 01:04:45;;;;;;;8.70;4.15;;;;;;;9.97;54.61;97735.78;701841;28;916;-77
2023/10/17 01:05:11;;;;;;;7.65;4.05;;;;;;;9.77;54.22;97739.56;699234;28;1325;-75
2023/10/17 01:06:09;;;;;;;9.43;4.22;;;;;;;9.43;55.25;97742.03;699149;28;1314;-74
2023/10/17 01:06:54;;;;;;;10.27;3.80;;;;;;;8.84;57.04;97732.66;708032;27;1308;-72
2023/10/17 01:07:34;;;;;;;7.65;3.92;;;;;;;8.65;57.26;97738.03;634508;28;13014;-74
2023/10/17 01:07:57;;;;;;;8.15;3.92;;;;;;;8.39;58.14;97740.44;620636;28;183692;-72
2023/10/17 01:10:31;;;;;;;;;;;;;;;9.27;58.24;97745.31;5115415;27;20388;-71
2023/10/17 01:13:03;;;;;;;3.50;2.10;;;;;;;8.55;58.74;97747.84;5008646;27;19919;-73
2023/10/17 01:15:35;;;;;;;4.72;3.33;;;;;;;8.03;60.33;97748.13;5067893;27;20050;-69
2023/10/17 01:18:04;;;;;;;6.32;2.85;;;;;;;7.49;60.86;97753.09;5098868;27;20184;-75
2023/10/17 01:20:29;;;;;;;5.90;2.88;;;;;;;7.01;62.13;97758.25;5106259;27;20079;-72
2023/10/17 01:22:56;;;;;;;4.20;2.10;;;;;;;6.62;63.45;97752.78;5109344;27;20038;-72
2023/10/17 01:25:35;;;;;;;4.05;2.30;;;;;;;6.26;64.41;97766.47;5125296;27;20496;-71
2023/10/17 01:28:00;;;;;;;4.18;2.35;;;;;;;5.89;65.84;97755.47;5113089;27;20031;-73
2023/10/17 01:30:32;;;;;;;4.53;2.58;;;;;;;5.65;66.53;97766.22;5060668;27;20042;-74
2023/10/17 01:32:58;;;;;;;5.15;2.20;;;;;;;5.38;68.42;97766.66;5097704;27;20042;-74
2023/10/17 01:35:26;;;;;;;6.55;2.30;;;;;;;5.15;69.02;97765.00;5110473;27;20038;-75
2023/10/17 01:37:52;;;;;;;4.88;1.85;;;;;;;4.93;70.50;97771.16;5120941;27;20038;-72
2023/10/17 01:40:22;;;;;;;2.38;1.90;;;;;;;4.78;70.24;97767.91;5123203;27;20031;-73
2023/10/17 01:42:47;;;;;;;3.85;2.38;;;;;;;4.63;71.06;97769.06;5087813;27;166613;-71
2023/10/17 01:45:13;;;;;;;6.55;2.85;;;;;;;4.52;72.23;97774.34;5127565;27;20449;-72
2023/10/17 01:47:38;;;;;;;4.55;3.05;;;;;;;4.39;73.29;97771.81;5112366;27;20043;-72
2023/10/17 01:50:04;;;;;;;4.60;2.78;;;;;;;4.26;73.43;97768.44;5123530;27;20048;-72
2023/10/17 01:52:31;;;;;;;9.88;4.28;;;;;;;4.17;74.82;97784.97;5090127;27;20049;-73
2023/10/17 01:54:57;;;;;;;5.47;2.63;;;;;;;4.07;74.85;97782.13;5108663;27;20042;-71
2023/10/17 01:57:22;;;;;;;5.57;3.33;;;;;;;3.99;75.11;97793.28;5084801;27;20042;-74
2023/10/17 01:59:48;;;;;;;2.10;1.92;;;;;;;3.92;76.56;97780.66;5132336;27;20050;-76
2023/10/17 02:02:12;;;;;;;8.32;2.00;;;;;;;3.86;76.12;97784.59;5111748;27;20041;-77
2023/10/17 02:04:37;;;;;;;5.40;2.35;;;;;;;3.85;76.32;97793.44;5118714;27;20042;-74
2023/10/17 02:07:03;;;;;;;3.33;2.28;;;;;;;3.81;78.04;97791.16;5123572;27;20049;-70
2023/10/17 02:12:00;;;;;;;3.30;2.50;;;;;;;3.73;79.28;97786.44;5124278;27;20039;-71
2023/10/17 02:14:25;;;;;;;4.30;2.13;;;;;;;3.70;78.56;97786.69;5113665;27;20078;-72
2023/10/17 02:16:50;;;;;;;1.65;1.10;;;;;;;3.65;79.50;97780.88;5112791;27;20133;-72
2023/10/17 02:19:16;;;;;;;3.40;1.67;;;;;;;3.64;79.16;97781.84;5097614;27;20118;-69
2023/10/17 02:22:01;;;;;;;3.03;1.73;;;;;;;3.65;80.20;97780.88;5083069;27;20492;-71
2023/10/17 02:24:29;;;;;;;7.28;2.42;;;;;;;3.62;80.61;97787.22;5081660;27;20493;-71
2023/10/17 02:26:56;;;;;;;4.32;2.08;;;;;;;3.59;80.87;97786.63;5099739;27;20065;-70
2023/10/17 02:29:26;;;;;;;3.13;1.83;;;;;;;3.49;80.04;97789.09;5115956;27;20412;-70
2023/10/17 02:31:54;;;;;;;4.32;2.10;;;;;;;3.44;80.71;97796.47;5120860;27;20069;-72
2023/10/17 02:34:22;;;;;;;3.25;2.20;;;;;;;3.39;81.13;97789.84;5099698;27;20118;-74
2023/10/17 02:36:47;;;;;;;1.98;1.70;;;;;;;3.27;81.43;97788.94;5119441;27;20054;-74
2023/10/17 02:39:12;;;;;;;3.70;1.88;;;;;;;3.28;80.81;97796.72;5119501;27;20050;-73
2023/10/17 02:41:37;;;;;;;2.33;1.80;;;;;;;3.22;81.43;97785.78;5114511;27;20043;-71
2023/10/17 02:44:04;;;;;;;3.85;1.92;;;;;;;3.16;81.80;97797.59;4983608;27;76130;-71
2023/10/17 02:46:28;;;;;;;3.10;1.55;;;;;;;3.11;81.63;97806.78;5090791;27;20084;-72
2023/10/17 02:48:54;;;;;;;2.05;1.65;;;;;;;3.04;82.20;97790.59;5086987;27;20066;-71
2023/10/17 02:53:45;;;;;;;6.55;2.15;;;;;;;2.99;82.60;97802.38;5109439;27;20039;-70
2023/10/17 02:56:19;;;;;;;2.92;1.85;;;;;;;2.95;81.83;97798.25;5114049;27;20045;-71
2023/10/17 02:59:21;;;;;;;3.38;1.83;;;;;;;2.89;82.97;97794.28;5114828;27;20043;-70
2023/10/17 03:01:40;;;;;;;1.77;1.48;;;;;;;2.88;82.32;97792.59;5098145;27;20050;-71
2023/10/17 03:04:11;;;;;;;3.55;1.80;;;;;;;2.80;82.88;97794.94;5099314;27;20045;-71
2023/10/17 03:06:43;;;;;;;3.88;2.30;;;;;;;2.73;83.94;97786.59;5081394;27;20034;-72
2023/10/17 03:11:57;;;;;;;2.58;2.13;;;;;;;2.66;83.17;97792.41;5069941;28;20086;-68
2023/10/17 03:14:37;;;;;;;2.53;2.30;;;;;;;2.65;83.76;97796.81;5053439;28;20036;-69
2023/10/17 03:17:03;;;;;;;1.45;1.35;;;;;;;2.59;84.12;97791.16;5056167;28;20040;-71
2023/10/17 03:19:28;;;;;;;4.47;2.25;;;;;;;2.55;83.42;97793.13;5072977;28;20253;-68
2023/10/17 03:21:59;;;;;;;3.40;2.10;;;;;;;2.53;84.04;97795.88;5068406;28;20118;-68
2023/10/17 03:24:38;;;;;;;3.03;1.55;;;;;;;2.53;84.65;97789.78;5059674;28;20909;-73
2023/10/17 03:27:07;;;;;;;4.65;2.33;;;;;;;2.52;84.61;97793.34;5056131;28;20097;-70
2023/10/17 03:29:34;;;;;;;2.80;1.77;;;;;;;2.53;84.71;97795.88;5056583;28;20040;-71
2023/10/17 03:32:10;;;;;;;5.18;2.25;;;;;;;2.53;84.97;97797.66;5055535;28;20533;-72
2023/10/17 03:34:35;;;;;;;2.80;1.60;;;;;;;2.55;85.11;97796.63;5056594;28;20085;-71
2023/10/17 03:40:18;;;;;;;1.98;1.50;;;;;;;2.58;85.54;97792.94;5056886;28;20100;-71
2023/10/17 03:42:46;;;;;;;4.53;1.77;;;;;;;2.54;85.45;97792.28;5059657;28;20047;-72
2023/10/17 03:45:13;;;;;;;2.75;1.42;;;;;;;2.49;85.27;97790.91;5055283;28;20036;-73
2023/10/17 03:47:47;;;;;;;5.75;2.40;;;;;;;2.52;85.65;97798.59;5056871;28;20051;-76
2023/10/17 03:50:19;;;;;;;2.83;1.80;;;;;;;2.47;85.66;97798.94;5074297;28;20128;-72
2023/10/17 03:52:47;;;;;;;5.03;2.00;;;;;;;2.45;85.90;97797.34;5057933;28;20561;-75
2023/10/17 03:55:12;;;;;;;4.40;2.13;;;;;;;2.47;85.93;97798.94;5049571;28;20832;-73
2023/10/17 03:57:52;;;;;;;3.45;1.85;;;;;;;2.46;85.41;97799.03;5064503;28;20427;-73
2023/10/17 04:00:25;;;;;;;1.65;1.40;;;;;;;2.40;85.76;97805.53;5072063;28;20032;-73
2023/10/17 04:02:50;;;;;;;2.78;1.58;;;;;;;2.34;86.18;97798.06;5060209;28;20619;-72
2023/10/17 04:05:17;;;;;;;2.58;1.40;;;;;;;2.39;86.30;97809.09;5056267;28;20497;-72
2023/10/17 04:07:42;;;;;;;1.98;1.45;;;;;;;2.38;85.76;97822.34;5072060;28;20035;-72
2023/10/17 04:10:37;;;;;;;6.70;2.55;;;;;;;2.38;85.85;97825.84;5090078;27;20112;-73
2023/10/17 04:13:12;;;;;;;2.25;1.85;;;;;;;2.42;85.90;97834.38;5077758;27;20458;-73
2023/10/17 04:15:42;;;;;;;3.70;1.70;;;;;;;2.49;86.09;97833.84;5096605;27;20493;-72
2023/10/17 04:18:10;;;;;;;3.25;1.60;;;;;;;2.58;86.48;97831.56;5096638;27;20043;-71
2023/10/17 04:20:36;;;;;;;3.67;2.05;;;;;;;2.62;86.50;97835.63;5096273;27;20046;-70
2023/10/17 04:23:01;;;;;;;3.35;1.85;;;;;;;2.74;85.89;97840.91;5096334;27;20047;-71
2023/10/17 04:25:37;;;;;;;5.97;1.42;;;;;;;2.80;85.76;97845.75;5096117;27;20046;-70
2023/10/17 04:28:02;;;;;;;5.20;2.03;;;;;;;2.87;86.53;97843.53;5077741;27;20043;-69
2023/10/17 04:30:30;;;;;;;3.47;2.00;;;;;;;2.96;85.44;97853.44;5096005;27;20035;-70
2023/10/17 04:33:08;;;;;;;3.58;1.83;;;;;;;3.00;86.13;97852.28;5077939;27;20050;-70
2023/10/17 04:35:33;;;;;;;4.68;2.08;;;;;;;2.98;84.73;97858.59;5077728;28;20062;-71
2023/10/17 04:40:50;;;;;;;2.22;1.88;;;;;;;3.08;84.57;97863.09;5077752;27;20038;-70
2023/10/17 04:45:58;;;;;;;2.97;2.05;;;;;;;3.18;84.43;97873.84;5094815;27;20295;-71
2023/10/17 04:48:32;;;;;;;4.60;1.95;;;;;;;3.20;83.48;97874.56;5095803;27;20035;-70
2023/10/17 04:50:58;;;;;;;3.60;2.17;;;;;;;3.22;84.08;97883.22;5094859;27;20100;-70
2023/10/17 04:53:35;;;;;;;4.15;1.95;;;;;;;3.20;83.59;97879.84;5094656;27;20084;-72
2023/10/17 04:56:11;;;;;;;4.40;2.50;;;;;;;3.32;83.62;97883.41;5077255;27;20107;-70
2023/10/17 04:58:48;;;;;;;3.15;2.17;;;;;;;3.35;82.43;97888.47;5095773;27;20050;-69
2023/10/17 05:01:46;;;;;;;2.95;1.70;;;;;;;3.41;83.27;97888.03;5095873;27;20122;-70
2023/10/17 06:17:20;;;;;;;4.07;1.92;;;;;;;4.14;77.88;97935.50;5076627;28;20050;-70
2023/10/17 06:19:46;;;;;;;2.80;1.90;;;;;;;4.18;78.00;97934.28;5076660;28;20191;-70
2023/10/17 06:28:20;;;;;;;3.65;1.73;;;;;;;4.16;78.87;97923.03;4976739;28;20071;-72
2023/10/17 06:30:45;;;;;;;2.90;2.05;;;;;;;4.15;77.94;97929.25;5015509;28;20061;-72
2023/10/17 06:33:19;;;;;;;3.97;1.70;;;;;;;4.16;77.85;97936.22;5017199;28;20578;-72
2023/10/17 06:35:55;;;;;;;2.58;1.90;;;;;;;4.25;78.09;97940.81;5038503;28;20048;-72
2023/10/17 06:38:27;;;;;;;1.70;1.45;;;;;;;4.29;78.86;97929.06;5021082;28;20055;-72
2023/10/17 06:40:53;;;;;;;9.02;1.70;;;;;;;4.34;78.24;97919.03;5054913;28;20096;-72
2023/10/17 06:43:27;;;;;;;5.30;2.05;;;;;;;4.38;78.42;97939.81;5055008;28;20115;-72
2023/10/17 06:45:57;;;;;;;5.90;1.70;;;;;;;4.41;78.30;97933.44;5021561;28;20044;-71
2023/10/17 06:48:31;;;;;;;5.43;1.65;;;;;;;4.45;77.72;97934.06;5054696;28;20143;-71
2023/10/17 06:53:42;;;;;;;2.65;1.83;;;;;;;4.53;77.17;97937.81;5038042;28;20040;-71
2023/10/17 06:56:09;;;;;;;1.65;1.30;;;;;;;4.48;76.25;97942.63;5055201;28;20056;-71
2023/10/17 06:58:34;;;;;;;3.50;1.73;;;;;;;4.54;77.03;97939.50;5055182;28;20055;-71
2023/10/17 07:00:59;;;;;;;5.22;1.88;;;;;;;4.55;76.46;97943.84;5038361;28;20052;-73
2023/10/17 07:03:28;;;;;;;7.05;1.67;;;;;;;4.61;75.53;97935.47;5093610;27;20046;-73
2023/10/17 07:06:01;;;;;;;2.17;1.55;;;;;;;4.55;76.23;97953.56;5099991;27;20634;-72
2023/10/17 07:08:36;;;;;;;3.75;2.05;;;;;;;4.56;76.36;97940.25;5099650;27;20103;-72
2023/10/17 07:16:41;;;;;;;;;;;;;;;4.78;75.39;97947.41;5097064;27;20392;-72
2023/10/17 07:22:05;;;;;;;2.75;2.22;;;;;;;4.61;75.92;97951.31;5097997;27;20046;-72
2023/10/17 07:24:33;;;;;;;3.25;2.47;;;;;;;4.62;76.20;97968.00;5099798;27;20045;-76
2023/10/17 07:27:01;;;;;;;6.85;2.65;;;;;;;4.62;75.09;97963.56;5080821;27;20156;-77
2023/10/17 07:29:26;;;;;;;4.60;3.10;;;;;;;4.63;75.09;97967.84;5098979;27;20042;-77
2023/10/17 07:31:54;;;;;;;4.35;3.45;;;;;;;4.72;75.84;97967.19;5099758;27;20051;-77
2023/10/17 07:34:23;;;;;;;4.60;3.75;;;;;;;4.75;75.52;97966.94;5081062;27;20122;-76
2023/10/17 07:36:58;;;;;;;5.40;2.83;;;;;;;4.80;75.35;97968.41;5081147;27;20082;-76
2023/10/17 07:39:23;;;;;;;3.05;2.03;;;;;;;4.72;75.42;97969.84;5098444;27;20520;-76
2023/10/17 07:41:54;;;;;;;2.65;2.13;;;;;;;4.75;74.99;97974.88;5080696;27;20046;-76
2023/10/17 07:44:21;;;;;;;5.47;1.80;;;;;;;4.69;75.74;97971.84;5099130;27;20062;-76
2023/10/17 07:46:50;;;;;;;4.50;1.98;;;;;;;4.68;75.80;97978.09;5080178;27;20084;-70
2023/10/17 07:49:18;;;;;;;1.67;1.58;;;;;;;4.65;75.24;97981.78;5078641;27;20047;-72
2023/10/17 07:51:43;;;;;;;3.97;1.92;;;;;;;4.61;75.49;97983.00;5095453;27;20118;-70
2023/10/17 07:54:08;;;;;;;1.88;1.38;;;;;;;4.63;76.03;97991.59;5096524;27;20134;-70
2023/10/17 07:56:33;;;;;;;5.43;2.17;;;;;;;4.59;75.73;97995.44;5096634;27;20043;-70
2023/10/17 07:58:57;;;;;;;2.95;1.85;;;;;;;4.61;74.88;97987.44;5096649;27;20049;-70
2023/10/17 08:01:59;;;;;;;2.38;1.20;;;;;;;4.51;74.87;97981.13;5078094;27;20062;-72
2023/10/17 08:06:41;;;;;;;2.25;1.75;;;;;;;4.51;74.59;97989.91;5098612;27;20130;-71
2023/10/17 08:09:36;;;;;;;4.25;2.08;;;;;;;4.65;74.01;98004.69;5098461;27;20505;-70
2023/10/17 08:11:52;;;;;;;2.53;1.58;;;;;;;4.71;74.29;97993.72;5116696;27;20821;-70
2023/10/17 08:14:18;;;;;;;1.42;1.33;;;;;;;4.73;73.14;97997.06;5098433;27;20500;-71
2023/10/17 08:16:43;;;;;;;4.22;1.13;;;;;;;4.83;72.64;98005.16;5115898;27;20069;-72
2023/10/17 08:19:14;;;;;;;1.63;1.50;;;;;;;4.86;73.32;98003.09;5116370;27;20468;-72
2023/10/17 08:21:58;;;;;;;2.72;1.88;;;;;;;4.87;72.91;98004.78;5081551;27;20130;-72
2023/10/17 08:24:33;;;;;;;4.03;1.92;;;;;;;4.96;72.54;98004.13;5117348;27;20167;-72
2023/10/17 08:27:13;;;;;;;4.00;1.77;;;;;;;4.99;71.65;98013.59;5081551;27;20129;-72
2023/10/17 08:30:16;;;;;;;1.98;1.27;;;;;;;4.86;70.78;98003.09;5117750;27;20058;-73
2023/10/17 08:32:38;;;;;;;1.85;1.33;;;;;;;4.90;70.19;98024.84;5114903;27;20046;-74
2023/10/17 08:35:10;;;;;;;2.35;1.50;;;;;;;4.91;71.19;98019.47;5098600;27;20469;-72
2023/10/17 08:37:43;;;;;;;2.78;1.35;;;;;;;4.99;71.65;98011.81;5115823;27;20042;-73
2023/10/17 08:40:29;;;;;;;2.42;1.13;;;;;;;5.05;70.87;97997.31;5117395;27;20133;-72
2023/10/17 08:42:56;;;;;;;2.30;1.50;;;;;;;5.18;71.37;97997.22;5098916;27;20149;-73
2023/10/17 08:45:24;;;;;;;2.05;1.35;;;;;;;5.34;71.98;98003.84;5117546;27;20917;-72
2023/10/17 08:47:50;;;;;;;3.03;1.88;;;;;;;5.50;71.89;98007.97;5117442;27;20069;-73
2023/10/17 08:50:15;;;;;;;4.55;2.05;;;;;;;5.58;71.86;98000.28;5117260;27;20489;-72
2023/10/17 08:52:40;;;;;;;2.05;1.45;;;;;;;5.67;71.47;98004.84;5117319;27;20500;-73
2023/10/17 08:55:05;;;;;;;4.80;2.03;;;;;;;5.77;71.23;98000.53;5081785;27;20046;-72
2023/10/17 08:57:33;;;;;;;3.35;2.05;;;;;;;5.82;71.03;97988.66;5098885;27;20087;-71
2023/10/17 09:02:40;;;;;;;5.30;2.03;;;;;;;5.98;70.22;97988.31;5115314;27;20037;-71
2023/10/17 09:05:19;;;;;;;2.15;1.25;;;;;;;6.15;70.20;97995.75;5116654;27;20050;-77
2023/10/17 09:07:48;;;;;;;3.22;1.48;;;;;;;6.28;68.97;98005.38;5116996;27;20070;-73
2023/10/17 09:10:50;;;;;;;2.22;1.33;;;;;;;6.41;69.23;97990.19;5116542;27;20062;-71
2023/10/17 09:15:57;;;;;;;3.47;2.05;;;;;;;6.63;67.82;97997.22;5095957;28;20034;-71
2023/10/17 09:18:28;;;;;;;3.10;1.35;;;;;;;6.61;67.36;97997.34;5076992;28;20171;-71
2023/10/17 09:20:55;;;;;;;1.40;1.20;;;;;;;6.47;67.22;97995.81;5095496;28;20100;-71
2023/10/17 09:23:28;;;;;;;2.95;1.48;;;;;;;6.46;67.68;97998.56;5077223;28;20514;-70
2023/10/17 09:25:58;;;;;;;2.63;1.45;;;;;;;6.32;67.72;97988.28;5052402;28;20043;-71
2023/10/17 09:28:25;;;;;;;2.92;1.23;;;;;;;6.30;67.78;98000.78;5060243;28;20037;-69
2023/10/17 09:31:03;;;;;;;2.42;1.80;;;;;;;6.25;66.87;98000.31;5095980;27;20043;-71
2023/10/17 09:33:32;;;;;;;3.70;1.05;;;;;;;6.24;67.24;97995.97;5099460;27;20502;-71
2023/10/17 09:36:04;;;;;;;2.13;1.40;;;;;;;6.25;67.36;97990.56;5098147;27;20393;-71
2023/10/17 09:38:31;;;;;;;2.30;1.30;;;;;;;6.27;67.73;97988.63;5097946;27;20043;-71
2023/10/17 09:40:59;;;;;;;3.05;1.45;;;;;;;6.38;67.68;97991.25;5099505;27;20133;-70
2023/10/17 09:43:24;;;;;;;2.00;1.30;;;;;;;6.40;67.56;97999.09;5081252;27;20432;-70
2023/10/17 09:45:52;;;;;;;1.77;1.50;;;;;;;6.38;68.39;97991.25;5103150;27;20403;-73
2023/10/17 09:48:21;;;;;;;2.90;1.70;;;;;;;6.39;67.83;97997.41;5101549;27;20046;-75
2023/10/17 09:50:46;;;;;;;1.98;1.27;;;;;;;6.47;67.38;98000.25;5103036;27;20035;-71
2023/10/17 09:53:18;;;;;;;1.13;0.90;;;;;;;6.68;67.71;97993.22;5120249;27;20061;-70
2023/10/17 09:55:48;;;;;;;2.13;1.92;;;;;;;6.96;67.29;97988.31;5101194;27;20043;-70
2023/10/17 09:58:17;;;;;;;5.90;1.48;;;;;;;7.21;67.09;97995.91;5118559;27;20053;-71
2023/10/17 10:00:51;;;;;;;3.03;1.23;;;;;;;7.43;64.84;97993.13;5119572;27;20125;-72
2023/10/17 10:03:17;;;;;;;1.17;1.00;;;;;;;7.50;64.95;97980.16;5101143;27;20396;-75
2023/10/17 10:05:42;;;;;;;2.85;1.60;;;;;;;7.90;63.44;97972.28;5120672;27;20042;-75
2023/10/17 10:08:32;;;;;;;1.55;1.02;;;;;;;8.35;63.33;97984.16;5120633;27;20038;-76
2023/10/17 10:10:57;;;;;;;2.72;1.33;;;;;;;8.37;61.75;97981.38;5096821;27;20088;-76
2023/10/17 10:13:22;;;;;;;3.08;1.92;;;;;;;8.40;61.92;97978.44;5089393;27;20047;-75
2023/10/17 10:15:59;;;;;;;2.97;1.17;;;;;;;8.41;61.79;97973.97;5105291;27;20043;-75
2023/10/17 10:18:47;;;;;;;3.17;1.42;;;;;;;8.24;59.64;97980.78;5112174;27;20050;-76
2023/10/17 10:21:12;;;;;;;4.38;1.77;;;;;;;7.98;61.25;97972.44;5095290;27;20038;-74
2023/10/17 10:23:42;;;;;;;1.40;1.30;;;;;;;7.85;61.04;97961.22;5113467;27;20039;-76
2023/10/17 10:26:13;;;;;;;1.95;1.35;;;;;;;7.67;61.50;97966.31;5104008;27;20038;-75
2023/10/17 10:28:39;;;;;;;3.92;1.50;;;;;;;7.37;61.62;97953.84;5099300;27;20031;-75
2023/10/17 10:31:39;;;;;;;4.50;1.50;;;;;;;7.43;62.05;97963.09;5103738;27;20093;-75
2023/10/17 10:34:04;;;;;;;1.38;1.00;;;;;;;7.11;62.29;97963.19;5055474;28;20130;-74
2023/10/17 10:36:29;;;;;;;5.00;2.92;;;;;;;6.90;62.74;97957.84;5039760;28;20036;-76
2023/10/17 10:39:06;;;;;;;3.22;1.52;;;;;;;6.93;63.45;97969.03;5057380;28;20169;-75
2023/10/17 10:41:31;;;;;;;5.03;1.40;;;;;;;6.75;63.59;97957.34;5026027;28;20051;-75
2023/10/17 10:43:59;;;;;;;3.25;1.70;;;;;;;6.60;63.93;97966.53;5073078;28;20055;-74
2023/10/17 10:46:24;;;;;;;3.30;1.77;;;;;;;6.47;65.14;97971.16;5070639;28;20465;-73
2023/10/17 10:48:53;;;;;;;2.50;1.73;;;;;;;6.42;65.74;97966.25;5025790;28;20607;-75
2023/10/17 10:51:24;;;;;;;3.03;1.95;;;;;;;6.48;65.47;97970.19;5056120;28;20052;-73
2023/10/17 10:53:57;;;;;;;3.35;1.98;;;;;;;6.46;66.21;97956.22;5055622;28;20055;-74
2023/10/17 10:56:26;;;;;;;3.58;2.20;;;;;;;6.62;66.96;97974.34;5053903;28;20430;-75
2023/10/17 10:58:55;;;;;;;1.40;1.30;;;;;;;6.65;66.15;97959.06;5026694;28;20041;-78
2023/10/17 11:01:20;;;;;;;2.90;2.33;;;;;;;6.74;67.09;97954.81;5066555;28;20044;-75
2023/10/17 11:03:46;;;;;;;3.22;1.65;;;;;;;6.92;67.01;97953.28;5039503;28;20569;-72
2023/10/17 11:06:11;;;;;;;4.80;2.50;;;;;;;7.11;66.15;97956.06;5064409;28;20044;-73
2023/10/17 11:08:48;;;;;;;4.15;2.10;;;;;;;7.15;65.46;97943.38;5054435;27;20506;-73
2023/10/17 11:11:14;;;;;;;3.10;2.00;;;;;;;7.06;65.04;97950.31;5111342;27;20423;-74
2023/10/17 11:13:44;;;;;;;2.67;1.95;;;;;;;7.23;65.87;97970.91;5115893;27;20131;-76
2023/10/17 11:16:09;;;;;;;5.85;1.90;;;;;;;7.14;65.50;97961.09;5119105;27;20039;-74
2023/10/17 11:18:35;;;;;;;7.43;2.53;;;;;;;7.06;64.55;97962.72;5100345;27;20091;-74
2023/10/17 11:21:02;;;;;;;2.75;1.98;;;;;;;6.97;64.87;97958.19;5099995;27;20412;-75
2023/10/17 11:23:27;;;;;;;1.92;1.73;;;;;;;6.93;65.69;97958.44;5097494;27;20038;-74
2023/10/17 11:25:53;;;;;;;4.68;2.30;;;;;;;6.70;66.25;97956.88;5119143;27;20393;-75
2023/10/17 11:28:17;;;;;;;1.70;1.60;;;;;;;6.67;66.31;97958.91;5115588;27;20145;-71
2023/10/17 11:30:42;;;;;;;6.68;2.20;;;;;;;6.60;66.77;97963.88;5103769;27;20122;-74
2023/10/17 11:33:28;;;;;;;3.42;1.80;;;;;;;6.65;67.37;97974.94;5119422;27;20466;-74
2023/10/17 11:35:53;;;;;;;8.65;2.50;;;;;;;6.71;67.37;97970.94;5075962;27;20043;-73
2023/10/17 11:38:40;;;;;;;3.25;1.92;;;;;;;6.77;67.17;97976.56;5044785;27;66806;-74
2023/10/17 11:41:05;;;;;;;7.43;2.20;;;;;;;6.65;67.60;97974.13;5069748;27;20039;-74
2023/10/17 11:43:42;;;;;;;6.57;2.38;;;;;;;6.54;67.55;97969.69;5109694;27;20389;-73
2023/10/17 11:46:12;;;;;;;2.67;1.83;;;;;;;6.49;67.72;97982.44;5121193;27;20050;-72
2023/10/17 11:48:43;;;;;;;4.40;2.03;;;;;;;6.46;67.96;97972.09;5124332;27;20030;-74
2023/10/17 11:51:12;;;;;;;3.40;2.22;;;;;;;6.40;68.39;97975.25;5104309;27;20043;-74
2023/10/17 11:54:07;;;;;;;6.03;2.13;;;;;;;6.48;68.73;97971.03;5112008;27;20496;-73
2023/10/17 11:56:34;;;;;;;1.95;1.70;;;;;;;6.33;68.61;97966.13;5097166;27;20129;-73
2023/10/17 11:59:01;;;;;;;3.40;1.50;;;;;;;6.19;68.59;97977.84;5110563;27;20043;-75